createdAt,value
2023-05-08T00:01:31.597Z,39.50
2023-05-08T00:03:03.900Z,39.56
2023-05-08T00:04:35.717Z,39.67
2023-05-08T00:06:07.516Z,39.67
2023-05-08T00:07:39.830Z,39.70
2023-05-08T00:09:11.568Z,39.70
2023-05-08T00:10:43.634Z,39.61
2023-05-08T00:12:15.476Z,39.59
2023-05-08T00:13:47.236Z,39.73
2023-05-08T00:15:19.106Z,39.65
2023-05-08T00:16:51.725Z,39.67
2023-05-08T00:18:23.387Z,39.49
2023-05-08T00:19:55.222Z,39.88
2023-05-08T00:21:27.396Z,39.80
2023-05-08T00:22:58.956Z,40.22
2023-05-08T00:24:31.693Z,40.09
2023-05-08T00:26:03.346Z,40.07
2023-05-08T00:27:35.133Z,39.83
2023-05-08T00:29:06.973Z,40.15
2023-05-08T00:30:38.864Z,40.21
2023-05-08T00:32:10.980Z,40.37
2023-05-08T00:33:43.062Z,40.18
2023-05-08T00:35:15.036Z,40.61
2023-05-08T00:36:46.526Z,40.34
2023-05-08T00:38:18.880Z,40.58
2023-05-08T00:39:50.616Z,40.90
2023-05-08T00:41:22.118Z,40.92
2023-05-08T00:42:54.206Z,40.92
2023-05-08T00:44:26.399Z,41.12
2023-05-08T00:45:59.395Z,40.99
2023-05-08T00:47:31.846Z,40.91
2023-05-08T00:49:04.763Z,40.82
2023-05-08T00:50:36.448Z,40.76
2023-05-08T00:52:11.202Z,41.04
2023-05-08T00:53:43.547Z,40.92
2023-05-08T00:55:15.655Z,41.04
2023-05-08T00:56:47.658Z,41.01
2023-05-08T00:58:19.747Z,41.15
2023-05-08T00:59:51.810Z,40.92
2023-05-08T01:01:23.914Z,41.14
2023-05-08T01:02:55.620Z,41.12
2023-05-08T01:04:27.556Z,41.18
2023-05-08T01:05:59.556Z,41.06
2023-05-08T01:07:31.277Z,41.27
2023-05-08T01:09:04.378Z,41.31
2023-05-08T01:10:47.774Z,41.33
2023-05-08T01:12:28.756Z,41.41
2023-05-08T01:14:20.822Z,41.67
2023-05-08T01:15:55.511Z,41.40
2023-05-08T01:17:27.228Z,41.52
2023-05-08T01:19:22.472Z,41.55
2023-05-08T01:21:01.282Z,41.67
2023-05-08T01:22:45.642Z,41.79
2023-05-08T01:24:35.854Z,41.97
2023-05-08T01:26:19.852Z,41.68
2023-05-08T01:27:51.389Z,42.11
2023-05-08T01:29:26.341Z,41.96
2023-05-08T01:31:18.836Z,42.25
2023-05-08T01:32:57.122Z,41.80
2023-05-08T01:34:31.588Z,42.30
2023-05-08T01:36:06.852Z,41.99
2023-05-08T01:37:41.615Z,42.54
2023-05-08T01:39:13.541Z,42.41
2023-05-08T01:40:48.278Z,42.21
2023-05-08T01:42:22.554Z,42.58
2023-05-08T01:43:54.734Z,42.55
2023-05-08T01:45:27.505Z,42.27
2023-05-08T01:46:59.167Z,42.21
2023-05-08T01:48:33.100Z,42.60
2023-05-08T01:50:15.503Z,42.38
2023-05-08T01:51:47.781Z,42.66
2023-05-08T01:53:23.762Z,42.21
2023-05-08T01:54:55.448Z,42.23
2023-05-08T01:56:28.604Z,42.52
2023-05-08T01:58:00.477Z,42.46
2023-05-08T01:59:32.540Z,42.73
2023-05-08T02:01:04.249Z,42.33
2023-05-08T02:02:36.651Z,42.80
2023-05-08T02:04:09.036Z,42.71
2023-05-08T02:05:40.915Z,42.57
2023-05-08T02:07:13.214Z,42.87
2023-05-08T02:08:44.947Z,43.03
2023-05-08T02:10:16.966Z,43.08
2023-05-08T02:11:48.563Z,42.93
2023-05-08T02:13:20.586Z,42.62
2023-05-08T02:14:53.606Z,42.68
2023-05-08T02:16:25.224Z,42.96
2023-05-08T02:17:56.970Z,42.94
2023-05-08T02:19:28.911Z,43.15
2023-05-08T02:21:00.533Z,42.94
2023-05-08T02:22:33.097Z,43.13
2023-05-08T02:24:05.052Z,42.90
2023-05-08T02:25:37.113Z,43.18
2023-05-08T02:27:09.198Z,42.88
2023-05-08T02:28:41.175Z,43.01
2023-05-08T02:30:17.010Z,43.56
2023-05-08T02:31:49.215Z,43.49
2023-05-08T02:33:21.135Z,42.98
2023-05-08T02:35:02.579Z,43.57
2023-05-08T02:36:35.114Z,43.46
2023-05-08T02:38:10.972Z,43.15
2023-05-08T02:39:42.647Z,43.27
2023-05-08T02:41:14.474Z,43.61
2023-05-08T02:42:46.965Z,43.60
2023-05-08T02:44:19.883Z,43.53
2023-05-08T02:46:03.868Z,43.65
2023-05-08T02:47:47.763Z,44.01
2023-05-08T02:49:33.173Z,44.00
2023-05-08T02:51:10.611Z,43.87
2023-05-08T02:52:52.454Z,44.14
2023-05-08T02:54:27.079Z,43.90
2023-05-08T02:56:02.723Z,43.96
2023-05-08T02:57:53.419Z,44.22
2023-05-08T02:59:42.816Z,43.83
2023-05-08T03:01:20.067Z,43.77
2023-05-08T03:02:56.191Z,43.75
2023-05-08T03:04:32.382Z,43.92
2023-05-08T03:06:04.383Z,44.24
2023-05-08T03:07:37.129Z,44.38
2023-05-08T03:09:11.564Z,44.31
2023-05-08T03:10:43.681Z,44.43
2023-05-08T03:12:16.371Z,44.38
2023-05-08T03:13:48.564Z,44.20
2023-05-08T03:15:39.294Z,44.16
2023-05-08T03:17:11.098Z,44.93
2023-05-08T03:18:47.673Z,44.83
2023-05-08T03:20:19.376Z,44.78
2023-05-08T03:21:51.735Z,44.71
2023-05-08T03:23:23.777Z,44.63
2023-05-08T03:24:55.803Z,44.57
2023-05-08T03:26:27.512Z,44.79
2023-05-08T03:27:59.214Z,44.71
2023-05-08T03:29:30.909Z,45.06
2023-05-08T03:31:03.480Z,45.14
2023-05-08T03:32:35.232Z,44.88
2023-05-08T03:34:06.774Z,45.22
2023-05-08T03:35:38.895Z,45.21
2023-05-08T03:37:10.397Z,45.27
2023-05-08T03:38:42.529Z,45.49
2023-05-08T03:40:14.236Z,45.40
2023-05-08T03:41:46.553Z,45.49
2023-05-08T03:43:18.178Z,45.28
2023-05-08T03:44:52.827Z,45.65
2023-05-08T03:46:25.158Z,45.80
2023-05-08T03:47:56.803Z,45.91
2023-05-08T03:49:28.431Z,45.83
2023-05-08T03:51:03.410Z,45.43
2023-05-08T03:52:34.953Z,45.45
2023-05-08T03:54:06.780Z,45.66
2023-05-08T03:55:39.573Z,45.30
2023-05-08T03:57:11.297Z,45.60
2023-05-08T03:58:42.945Z,45.44
2023-05-08T04:00:15.381Z,45.54
2023-05-08T04:02:10.509Z,45.44
2023-05-08T04:04:01.034Z,45.45
2023-05-08T04:05:34.788Z,45.52
2023-05-08T04:07:08.732Z,45.47
2023-05-08T04:08:43.557Z,45.51
2023-05-08T04:10:26.102Z,45.59
2023-05-08T04:12:12.567Z,45.91
2023-05-08T04:13:46.650Z,45.70
2023-05-08T04:15:19.303Z,45.67
2023-05-08T04:16:52.318Z,45.93
2023-05-08T04:18:25.322Z,45.72
2023-05-08T04:19:59.006Z,46.19
2023-05-08T04:21:31.902Z,45.82
2023-05-08T04:23:03.825Z,46.35
2023-05-08T04:24:36.261Z,46.24
2023-05-08T04:26:07.830Z,46.01
2023-05-08T04:27:39.446Z,46.28
2023-05-08T04:29:11.045Z,46.47
2023-05-08T04:30:43.248Z,46.13
2023-05-08T04:32:14.877Z,46.05
2023-05-08T04:33:47.035Z,46.32
2023-05-08T04:35:18.897Z,46.26
2023-05-08T04:36:50.434Z,46.61
2023-05-08T04:38:22.057Z,46.67
2023-05-08T04:39:53.674Z,46.38
2023-05-08T04:41:26.483Z,46.47
2023-05-08T04:42:58.079Z,46.77
2023-05-08T04:44:29.869Z,46.68
2023-05-08T04:46:01.627Z,46.77
2023-05-08T04:47:33.231Z,46.76
2023-05-08T04:49:04.990Z,46.95
2023-05-08T04:50:36.626Z,46.91
2023-05-08T04:52:08.146Z,46.68
2023-05-08T04:53:39.835Z,46.65
2023-05-08T04:55:12.319Z,46.95
2023-05-08T04:56:44.510Z,46.68
2023-05-08T04:58:15.955Z,46.43
2023-05-08T04:59:47.984Z,46.62
2023-05-08T05:01:20.256Z,46.47
2023-05-08T05:02:51.859Z,46.45
2023-05-08T05:04:23.719Z,46.41
2023-05-08T05:06:01.248Z,46.71
2023-05-08T05:07:33.414Z,46.88
2023-05-08T05:09:05.668Z,46.87
2023-05-08T05:10:38.484Z,46.96
2023-05-08T05:12:10.203Z,46.96
2023-05-08T05:13:41.717Z,47.00
2023-05-08T05:15:13.783Z,46.89
2023-05-08T05:16:45.659Z,46.83
2023-05-08T05:18:17.871Z,46.84
2023-05-08T05:19:51.604Z,46.74
2023-05-08T05:21:25.003Z,46.62
2023-05-08T05:22:57.759Z,46.37
2023-05-08T05:24:29.452Z,46.37
2023-05-08T05:26:01.470Z,46.42
2023-05-08T05:27:35.250Z,46.46
2023-05-08T05:29:06.838Z,46.17
2023-05-08T05:30:38.604Z,46.10
2023-05-08T05:32:11.732Z,46.06
2023-05-08T05:33:43.269Z,46.01
2023-05-08T05:35:15.484Z,46.06
2023-05-08T05:36:47.301Z,46.12
2023-05-08T05:38:19.275Z,46.04
2023-05-08T05:39:52.104Z,46.06
2023-05-08T05:41:24.570Z,45.92
2023-05-08T05:42:56.318Z,45.80
2023-05-08T05:44:27.784Z,45.80
2023-05-08T05:46:06.284Z,45.45
2023-05-08T05:47:38.331Z,45.57
2023-05-08T05:49:10.037Z,45.56
2023-05-08T05:50:41.696Z,45.51
2023-05-08T05:52:13.684Z,45.23
2023-05-08T05:53:45.720Z,45.41
2023-05-08T05:55:17.280Z,45.45
2023-05-08T05:56:48.895Z,45.34
2023-05-08T05:58:20.492Z,45.59
2023-05-08T05:59:53.632Z,45.51
2023-05-08T06:01:29.482Z,45.63
2023-05-08T06:03:02.621Z,45.56
2023-05-08T06:04:35.196Z,45.58
2023-05-08T06:06:07.037Z,45.60
2023-05-08T06:07:38.793Z,45.35
2023-05-08T06:09:10.557Z,45.18
2023-05-08T06:10:42.959Z,45.24
2023-05-08T06:12:14.754Z,45.15
2023-05-08T06:13:48.169Z,45.05
2023-05-08T06:15:21.627Z,45.05
2023-05-08T06:16:53.496Z,44.79
2023-05-08T06:18:25.304Z,44.70
2023-05-08T06:19:58.825Z,44.60
2023-05-08T06:21:30.898Z,44.58
2023-05-08T06:23:02.744Z,44.73
2023-05-08T06:24:35.921Z,44.74
2023-05-08T06:26:08.346Z,44.77
2023-05-08T06:27:40.103Z,44.98
2023-05-08T06:29:12.097Z,44.92
2023-05-08T06:30:44.185Z,45.02
2023-05-08T06:32:16.164Z,45.00
2023-05-08T06:33:47.907Z,44.68
2023-05-08T06:35:19.917Z,44.59
2023-05-08T06:36:51.593Z,44.29
2023-05-08T06:38:23.290Z,44.18
2023-05-08T06:40:10.338Z,43.99
2023-05-08T06:41:43.591Z,43.96
2023-05-08T06:43:15.812Z,43.89
2023-05-08T06:44:47.633Z,43.85
2023-05-08T06:46:19.694Z,43.68
2023-05-08T06:47:51.373Z,43.58
2023-05-08T06:49:23.291Z,43.52
2023-05-08T06:50:55.834Z,43.54
2023-05-08T06:52:27.722Z,43.36
2023-05-08T06:53:59.817Z,43.37
2023-05-08T06:55:31.461Z,43.22
2023-05-08T06:57:03.811Z,43.34
2023-05-08T06:58:36.047Z,43.41
2023-05-08T07:00:08.488Z,43.42
2023-05-08T07:01:40.660Z,43.54
2023-05-08T07:03:13.107Z,43.61
2023-05-08T07:04:44.945Z,43.44
2023-05-08T07:06:16.618Z,43.48
2023-05-08T07:07:48.262Z,43.81
2023-05-08T07:09:19.927Z,43.89
2023-05-08T07:10:51.878Z,43.96
2023-05-08T07:12:23.523Z,43.78
2023-05-08T07:13:55.575Z,43.39
2023-05-08T07:15:27.379Z,43.20
2023-05-08T07:16:59.223Z,43.04
2023-05-08T07:18:31.273Z,42.60
2023-05-08T07:20:03.633Z,42.52
2023-05-08T07:21:35.613Z,42.38
2023-05-08T07:23:07.617Z,42.22
2023-05-08T07:24:39.706Z,42.50
2023-05-08T07:26:11.540Z,42.44
2023-05-08T07:27:43.616Z,42.44
2023-05-08T07:29:15.603Z,42.67
2023-05-08T07:30:47.247Z,42.85
2023-05-08T07:32:19.399Z,42.84
2023-05-08T07:33:51.247Z,42.85
2023-05-08T07:35:22.980Z,42.61
2023-05-08T07:36:54.912Z,42.34
2023-05-08T07:38:26.752Z,42.37
2023-05-08T07:39:58.273Z,42.38
2023-05-08T07:41:30.680Z,42.49
2023-05-08T07:43:02.619Z,42.43
2023-05-08T07:44:43.505Z,42.55
2023-05-08T07:46:22.796Z,42.35
2023-05-08T07:47:55.365Z,42.35
2023-05-08T07:49:27.104Z,42.50
2023-05-08T07:50:59.000Z,42.47
2023-05-08T07:52:30.721Z,42.50
2023-05-08T07:54:02.593Z,42.39
2023-05-08T07:55:34.291Z,42.30
2023-05-08T07:57:06.248Z,42.29
2023-05-08T07:58:38.615Z,42.12
2023-05-08T08:00:11.701Z,42.00
2023-05-08T08:01:47.416Z,42.11
2023-05-08T08:03:19.281Z,42.20
2023-05-08T08:04:51.784Z,42.08
2023-05-08T08:06:23.683Z,42.29
2023-05-08T08:07:55.219Z,42.07
2023-05-08T08:09:26.987Z,41.84
2023-05-08T08:10:58.994Z,41.60
2023-05-08T08:12:32.533Z,41.71
2023-05-08T08:14:04.313Z,41.42
2023-05-08T08:15:35.993Z,41.68
2023-05-08T08:17:07.787Z,41.47
2023-05-08T08:18:39.499Z,41.37
2023-05-08T08:20:11.427Z,41.25
2023-05-08T08:21:43.883Z,41.27
2023-05-08T08:23:15.612Z,41.24
2023-05-08T08:24:47.332Z,41.01
2023-05-08T08:26:19.085Z,40.84
2023-05-08T08:27:50.720Z,41.10
2023-05-08T08:29:22.292Z,40.93
2023-05-08T08:30:53.996Z,41.02
2023-05-08T08:32:25.723Z,40.98
2023-05-08T08:33:57.870Z,40.85
2023-05-08T08:35:30.435Z,40.83
2023-05-08T08:37:02.131Z,40.79
2023-05-08T08:38:33.750Z,40.72
2023-05-08T08:40:06.000Z,40.68
2023-05-08T08:41:39.737Z,40.79
2023-05-08T08:43:11.433Z,40.88
2023-05-08T08:44:43.315Z,41.20
2023-05-08T08:46:15.675Z,41.33
2023-05-08T08:47:48.946Z,41.33
2023-05-08T08:49:25.009Z,41.13
2023-05-08T08:50:59.169Z,41.45
2023-05-08T08:52:32.018Z,41.29
2023-05-08T08:54:05.183Z,41.47
2023-05-08T08:55:37.986Z,41.43
2023-05-08T08:57:09.644Z,41.44
2023-05-08T08:58:44.072Z,41.30
2023-05-08T09:00:15.880Z,41.43
2023-05-08T09:01:57.310Z,41.42
2023-05-08T09:03:29.068Z,41.65
2023-05-08T09:05:00.863Z,41.53
2023-05-08T09:06:35.604Z,41.58
2023-05-08T09:08:07.919Z,41.52
2023-05-08T09:09:41.033Z,41.64
2023-05-08T09:11:12.626Z,41.69
2023-05-08T09:12:45.312Z,41.82
2023-05-08T09:14:16.975Z,41.91
2023-05-08T09:15:50.819Z,42.05
2023-05-08T09:17:22.891Z,41.98
2023-05-08T09:18:54.798Z,42.15
2023-05-08T09:20:26.858Z,42.10
2023-05-08T09:22:01.770Z,42.18
2023-05-08T09:23:35.576Z,42.13
2023-05-08T09:25:07.534Z,42.27
2023-05-08T09:26:39.690Z,42.36
2023-05-08T09:28:21.757Z,42.30
2023-05-08T09:30:07.354Z,42.56
2023-05-08T09:31:44.251Z,42.56
2023-05-08T09:33:16.172Z,42.56
2023-05-08T09:34:52.289Z,42.75
2023-05-08T09:36:29.676Z,42.68
2023-05-08T09:38:01.451Z,42.69
2023-05-08T09:39:33.403Z,42.77
2023-05-08T09:41:11.919Z,42.73
2023-05-08T09:42:44.040Z,42.66
2023-05-08T09:44:16.701Z,42.73
2023-05-08T09:45:48.410Z,42.93
2023-05-08T09:47:22.759Z,42.81
2023-05-08T09:49:14.883Z,42.78
2023-05-08T09:50:46.575Z,42.81
2023-05-08T09:52:20.524Z,42.88
2023-05-08T09:53:53.463Z,42.81
2023-05-08T09:55:26.904Z,42.87
2023-05-08T09:56:58.760Z,43.24
2023-05-08T09:58:42.883Z,43.18
2023-05-08T10:00:15.251Z,43.39
2023-05-08T10:01:47.000Z,43.43
2023-05-08T10:03:19.100Z,43.19
2023-05-08T10:04:50.734Z,43.46
2023-05-08T10:06:22.512Z,43.55
2023-05-08T10:07:57.149Z,43.51
2023-05-08T10:09:36.021Z,43.51
2023-05-08T10:11:18.252Z,43.29
2023-05-08T10:12:53.126Z,43.37
2023-05-08T10:14:24.927Z,43.15
2023-05-08T10:15:56.393Z,43.20
2023-05-08T10:17:32.268Z,43.13
2023-05-08T10:19:06.017Z,43.17
2023-05-08T10:20:40.858Z,43.10
2023-05-08T10:22:12.428Z,43.28
2023-05-08T10:23:44.153Z,43.40
2023-05-08T10:25:18.626Z,43.58
2023-05-08T10:27:06.281Z,43.72
2023-05-08T10:28:47.097Z,43.57
2023-05-08T10:30:20.053Z,43.64
2023-05-08T10:31:52.630Z,43.71
2023-05-08T10:33:25.094Z,43.57
2023-05-08T10:34:57.012Z,43.53
2023-05-08T10:36:30.880Z,43.43
2023-05-08T10:38:02.856Z,43.44
2023-05-08T10:39:34.622Z,43.33
2023-05-08T10:41:06.381Z,43.03
2023-05-08T10:42:38.128Z,42.80
2023-05-08T10:44:09.869Z,42.91
2023-05-08T10:45:41.497Z,42.47
2023-05-08T10:47:32.226Z,42.55
2023-05-08T10:49:09.731Z,42.23
2023-05-08T10:50:50.893Z,42.34
2023-05-08T10:52:33.281Z,42.25
2023-05-08T10:54:22.102Z,42.40
2023-05-08T10:55:54.632Z,42.42
2023-05-08T10:57:26.214Z,42.11
2023-05-08T10:58:58.033Z,42.26
2023-05-08T11:00:52.386Z,42.34
2023-05-08T11:02:29.043Z,42.51
2023-05-08T11:04:01.394Z,42.46
2023-05-08T11:05:34.448Z,42.29
2023-05-08T11:07:06.125Z,42.27
2023-05-08T11:08:46.970Z,42.38
2023-05-08T11:10:19.090Z,42.04
2023-05-08T11:12:03.661Z,41.95
2023-05-08T11:13:36.135Z,41.86
2023-05-08T11:15:09.521Z,42.06
2023-05-08T11:17:02.280Z,41.88
2023-05-08T11:20:10.182Z,41.98
2023-05-08T11:21:57.546Z,41.90
2023-05-08T11:23:29.574Z,41.47
2023-05-08T11:25:01.240Z,41.88
2023-05-08T11:26:39.779Z,41.37
2023-05-08T11:28:11.843Z,40.94
2023-05-08T11:29:45.887Z,41.09
2023-05-08T11:31:17.809Z,40.74
2023-05-08T11:33:05.333Z,40.94
2023-05-08T11:34:44.472Z,40.73
2023-05-08T11:36:17.244Z,40.62
2023-05-08T11:38:09.543Z,40.45
2023-05-08T11:39:41.309Z,40.57
2023-05-08T11:41:22.491Z,40.49
2023-05-08T11:42:55.822Z,40.58
2023-05-08T11:44:28.234Z,40.64
2023-05-08T11:46:04.432Z,40.12
2023-05-08T11:47:39.872Z,40.43
2023-05-08T11:49:18.431Z,40.26
2023-05-08T11:50:51.270Z,40.19
2023-05-08T11:52:22.915Z,39.95
2023-05-08T11:53:54.682Z,39.66
2023-05-08T11:55:26.550Z,39.89
2023-05-08T11:56:59.970Z,39.70
2023-05-08T11:58:32.057Z,39.92
2023-05-08T12:00:05.927Z,39.51
2023-05-08T12:01:38.750Z,39.50
2023-05-08T12:03:14.650Z,39.57
2023-05-08T12:04:47.291Z,39.49
2023-05-08T12:06:19.881Z,39.34
2023-05-08T12:07:51.812Z,39.43
2023-05-08T12:09:23.461Z,39.43
2023-05-08T12:10:57.420Z,39.18
2023-05-08T12:12:41.380Z,38.76
2023-05-08T12:14:13.980Z,38.59
2023-05-08T12:15:48.568Z,38.85
2023-05-08T12:17:21.429Z,38.42
2023-05-08T12:18:53.477Z,38.33
2023-05-08T12:20:25.797Z,38.25
2023-05-08T12:21:58.401Z,37.87
2023-05-08T12:23:30.649Z,37.87
2023-05-08T12:25:03.980Z,37.85
2023-05-08T12:26:37.448Z,37.94
2023-05-08T12:28:09.592Z,37.60
2023-05-08T12:29:45.034Z,37.54
2023-05-08T12:31:17.391Z,37.35
2023-05-08T12:32:49.435Z,37.18
2023-05-08T12:34:21.096Z,37.07
2023-05-08T12:35:52.962Z,37.01
2023-05-08T12:37:26.988Z,36.83
2023-05-08T12:39:14.758Z,36.63
2023-05-08T12:40:47.948Z,36.53
2023-05-08T12:42:19.569Z,36.58
2023-05-08T12:43:51.415Z,36.77
2023-05-08T12:45:28.491Z,36.61
2023-05-08T12:47:00.481Z,36.60
2023-05-08T12:48:32.249Z,36.17
2023-05-08T12:50:04.290Z,36.07
2023-05-08T12:51:36.192Z,36.12
2023-05-08T12:53:08.658Z,35.96
2023-05-08T12:54:41.721Z,35.66
2023-05-08T12:56:13.434Z,35.89
2023-05-08T12:57:45.140Z,35.91
2023-05-08T12:59:17.116Z,35.80
2023-05-08T13:00:50.115Z,35.60
2023-05-08T13:02:24.150Z,35.66
2023-05-08T13:04:02.272Z,35.68
2023-05-08T13:05:38.690Z,35.17
2023-05-08T13:07:10.422Z,35.14
2023-05-08T13:08:42.185Z,35.16
2023-05-08T13:10:14.178Z,34.97
2023-05-08T13:11:46.395Z,34.92
2023-05-08T13:13:19.002Z,34.70
2023-05-08T13:14:50.880Z,34.84
2023-05-08T13:16:22.669Z,34.61
2023-05-08T13:17:54.671Z,34.45
2023-05-08T13:19:27.671Z,34.59
2023-05-08T13:21:00.327Z,34.45
2023-05-08T13:22:32.085Z,34.61
2023-05-08T13:24:04.013Z,34.60
2023-05-08T13:25:36.168Z,34.78
2023-05-08T13:27:07.845Z,34.52
2023-05-08T13:28:40.024Z,34.46
2023-05-08T13:30:12.654Z,34.44
2023-05-08T13:31:44.431Z,34.63
2023-05-08T13:33:16.821Z,34.33
2023-05-08T13:34:51.105Z,34.69
2023-05-08T13:36:24.575Z,34.81
2023-05-08T13:37:56.672Z,34.80
2023-05-08T13:39:28.265Z,35.00
2023-05-08T13:40:59.992Z,35.25
2023-05-08T13:42:31.985Z,35.10
2023-05-08T13:44:03.687Z,35.25
2023-05-08T13:45:35.557Z,35.76
2023-05-08T13:47:07.378Z,36.17
2023-05-08T13:48:39.273Z,36.49
2023-05-08T13:50:11.100Z,36.79
2023-05-08T13:51:46.985Z,36.56
2023-05-08T13:53:21.588Z,37.19
2023-05-08T13:54:53.774Z,37.22
2023-05-08T13:56:26.155Z,37.59
2023-05-08T13:57:58.008Z,37.63
2023-05-08T14:01:56.582Z,38.19
2023-05-08T14:03:28.693Z,38.43
2023-05-08T14:05:00.375Z,38.69
2023-05-08T14:06:32.718Z,38.86
2023-05-08T14:08:07.655Z,38.84
2023-05-08T14:09:39.225Z,39.28
2023-05-08T14:11:11.380Z,39.54
2023-05-08T14:12:43.132Z,39.66
2023-05-08T14:14:14.727Z,39.81
2023-05-08T14:15:46.480Z,39.79
2023-05-08T14:17:18.271Z,39.86
2023-05-08T14:18:50.105Z,39.92
2023-05-08T14:20:22.066Z,40.25
2023-05-08T14:21:54.038Z,40.46
2023-05-08T14:23:26.016Z,40.61
2023-05-08T14:24:57.597Z,40.67
2023-05-08T14:26:29.300Z,40.96
2023-05-08T14:28:01.054Z,41.12
2023-05-08T14:29:33.558Z,41.18
2023-05-08T14:31:05.345Z,41.36
2023-05-08T14:32:37.073Z,41.82
2023-05-08T14:34:08.947Z,42.03
2023-05-08T14:35:43.495Z,42.14
2023-05-08T14:37:15.117Z,42.44
2023-05-08T14:38:47.085Z,42.52
2023-05-08T14:40:18.794Z,42.36
2023-05-08T14:42:14.347Z,42.58
2023-05-08T14:43:43.491Z,42.47
2023-05-08T14:45:15.352Z,42.47
2023-05-08T14:46:47.669Z,42.22
2023-05-08T14:48:19.334Z,42.07
2023-05-08T14:49:53.869Z,42.50
2023-05-08T14:51:25.906Z,42.78
2023-05-08T14:52:57.721Z,42.90
2023-05-08T14:54:29.565Z,43.19
2023-05-08T14:56:01.586Z,43.31
2023-05-08T14:57:33.371Z,43.56
2023-05-08T14:59:05.052Z,43.91
2023-05-08T15:00:36.798Z,43.94
2023-05-08T15:02:08.418Z,44.09
2023-05-08T15:03:40.272Z,44.32
2023-05-08T15:07:03.702Z,44.55
2023-05-08T15:08:35.443Z,44.69
2023-05-08T15:10:07.273Z,44.71
2023-05-08T15:11:38.948Z,44.63
2023-05-08T15:13:10.614Z,45.03
2023-05-08T15:14:42.176Z,44.67
2023-05-08T15:16:13.940Z,44.88
2023-05-08T15:17:46.227Z,45.03
2023-05-08T15:19:17.988Z,44.95
2023-05-08T15:20:49.527Z,45.08
2023-05-08T15:22:21.047Z,45.13
2023-05-08T15:23:53.447Z,45.01
2023-05-08T15:25:26.721Z,45.16
2023-05-08T15:26:58.363Z,45.11
2023-05-08T15:28:30.362Z,45.20
2023-05-08T15:30:02.079Z,44.78
2023-05-08T15:31:33.736Z,45.05
2023-05-08T15:33:05.732Z,45.03
2023-05-08T15:34:38.653Z,45.01
2023-05-08T15:36:12.832Z,45.06
2023-05-08T15:37:44.357Z,45.12
2023-05-08T15:39:15.957Z,45.08
2023-05-08T15:40:47.543Z,45.29
2023-05-08T15:42:20.790Z,45.13
2023-05-08T15:43:52.337Z,45.22
2023-05-08T15:45:23.883Z,45.20
2023-05-08T15:46:55.540Z,45.18
2023-05-08T15:48:27.124Z,45.22
2023-05-08T15:49:59.064Z,45.36
2023-05-08T15:51:30.818Z,45.75
2023-05-08T15:53:02.313Z,45.85
2023-05-08T15:54:34.752Z,45.82
2023-05-08T15:56:06.424Z,46.09
2023-05-08T15:57:38.156Z,46.05
2023-05-08T15:59:09.622Z,46.10
2023-05-08T16:00:45.313Z,46.22
2023-05-08T16:02:17.414Z,46.33
2023-05-08T16:03:49.495Z,46.21
2023-05-08T16:05:21.516Z,46.49
2023-05-08T16:06:53.370Z,46.52
2023-05-08T16:08:25.509Z,46.44
2023-05-08T16:09:56.992Z,46.43
2023-05-08T16:11:34.490Z,46.65
2023-05-08T16:13:06.601Z,46.60
2023-05-08T16:14:38.352Z,46.78
2023-05-08T16:16:10.102Z,46.93
2023-05-08T16:17:41.851Z,46.95
2023-05-08T16:19:15.063Z,47.06
2023-05-08T16:20:46.779Z,47.20
2023-05-08T16:22:18.500Z,47.06
2023-05-08T16:23:50.503Z,47.07
2023-05-08T16:25:22.742Z,47.11
2023-05-08T16:26:54.447Z,47.15
2023-05-08T16:28:26.176Z,47.13
2023-05-08T16:29:57.945Z,47.59
2023-05-08T16:31:29.962Z,47.45
2023-05-08T16:33:01.959Z,47.52
2023-05-08T16:34:35.406Z,47.68
2023-05-08T16:36:07.122Z,47.88
2023-05-08T16:37:39.364Z,47.94
2023-05-08T16:39:12.100Z,48.17
2023-05-08T16:40:43.977Z,48.40
2023-05-08T16:42:15.691Z,48.48
2023-05-08T16:43:47.845Z,48.48
2023-05-08T16:45:19.468Z,48.44
2023-05-08T16:46:51.437Z,48.53
2023-05-08T16:48:23.138Z,48.29
2023-05-08T16:49:55.815Z,48.23
2023-05-08T16:51:27.978Z,48.03
2023-05-08T16:52:59.818Z,48.06
2023-05-08T16:54:31.385Z,48.05
2023-05-08T16:56:03.467Z,47.97
2023-05-08T16:57:35.215Z,48.02
2023-05-08T16:59:07.316Z,47.90
2023-05-08T17:00:39.027Z,47.90
2023-05-08T17:02:12.276Z,47.83
2023-05-08T17:03:44.513Z,47.91
2023-05-08T17:05:16.725Z,48.19
2023-05-08T17:06:49.199Z,47.91
2023-05-08T17:08:20.905Z,48.08
2023-05-08T17:09:55.898Z,48.16
2023-05-08T17:11:27.551Z,48.34
2023-05-08T17:12:59.318Z,48.73
2023-05-08T17:14:31.025Z,48.86
2023-05-08T17:16:03.087Z,48.96
2023-05-08T17:17:34.865Z,49.08
2023-05-08T17:19:06.537Z,49.14
2023-05-08T17:20:41.146Z,49.24
2023-05-08T17:22:13.364Z,49.19
2023-05-08T17:23:45.774Z,49.24
2023-05-08T17:25:17.508Z,49.33
2023-05-08T17:26:49.267Z,49.20
2023-05-08T17:28:20.784Z,49.24
2023-05-08T17:29:52.936Z,49.08
2023-05-08T17:31:24.515Z,49.12
2023-05-08T17:32:56.404Z,49.32
2023-05-08T17:34:28.166Z,49.24
2023-05-08T17:36:00.954Z,49.31
2023-05-08T17:37:32.647Z,49.31
2023-05-08T17:39:04.496Z,49.24
2023-05-08T17:40:37.084Z,49.32
2023-05-08T17:42:09.086Z,49.47
2023-05-08T17:43:40.850Z,49.38
2023-05-08T17:45:12.485Z,49.20
2023-05-08T17:46:44.435Z,49.17
2023-05-08T17:48:16.468Z,49.35
2023-05-08T17:49:48.175Z,49.41
2023-05-08T17:51:20.801Z,49.40
2023-05-08T17:52:52.533Z,49.47
2023-05-08T17:54:24.266Z,49.39
2023-05-08T17:55:56.265Z,49.78
2023-05-08T17:57:27.973Z,49.66
2023-05-08T17:58:59.486Z,49.66
2023-05-08T18:00:31.050Z,49.75
2023-05-08T18:02:02.801Z,49.69
2023-05-08T18:03:34.673Z,49.57
2023-05-08T18:05:07.143Z,49.72
2023-05-08T18:06:38.869Z,49.72
2023-05-08T18:08:10.845Z,49.65
2023-05-08T18:09:42.601Z,49.80
2023-05-08T18:11:17.914Z,49.79
2023-05-08T18:12:49.961Z,49.82
2023-05-08T18:14:22.102Z,49.80
2023-05-08T18:15:53.706Z,49.71
2023-05-08T18:17:25.698Z,49.84
2023-05-08T18:18:57.739Z,49.87
2023-05-08T18:20:29.409Z,49.78
2023-05-08T18:22:01.943Z,49.84
2023-05-08T18:23:33.651Z,50.04
2023-05-08T18:25:05.993Z,50.16
2023-05-08T18:26:38.260Z,50.30
2023-05-08T18:28:10.546Z,50.26
2023-05-08T18:29:42.112Z,50.20
2023-05-08T18:31:15.732Z,50.08
2023-05-08T18:32:47.613Z,50.03
2023-05-08T18:34:19.300Z,50.03
2023-05-08T18:35:51.403Z,49.96
2023-05-08T18:37:23.457Z,49.86
2023-05-08T18:38:55.659Z,49.92
2023-05-08T18:40:28.020Z,50.15
2023-05-08T18:41:59.664Z,50.39
2023-05-08T18:43:31.507Z,50.24
2023-05-08T18:45:05.739Z,50.48
2023-05-08T18:46:37.440Z,50.44
2023-05-08T18:48:09.723Z,50.47
2023-05-08T18:49:41.476Z,50.57
2023-05-08T18:51:14.061Z,50.43
2023-05-08T18:52:45.705Z,50.62
2023-05-08T18:54:17.411Z,50.72
2023-05-08T18:55:49.005Z,50.68
2023-05-08T18:57:20.731Z,50.86
2023-05-08T18:58:52.335Z,50.83
2023-05-08T19:00:24.555Z,51.16
2023-05-08T19:01:56.717Z,51.45
2023-05-08T19:03:28.505Z,51.31
2023-05-08T19:05:00.977Z,51.38
2023-05-08T19:06:33.021Z,51.51
2023-05-08T19:08:05.491Z,51.46
2023-05-08T19:09:37.125Z,51.61
2023-05-08T19:11:10.583Z,51.51
2023-05-08T19:12:42.630Z,51.75
2023-05-08T19:14:14.480Z,51.65
2023-05-08T19:15:46.070Z,51.62
2023-05-08T19:17:17.745Z,51.52
2023-05-08T19:18:49.387Z,51.57
2023-05-08T19:20:21.168Z,51.58
2023-05-08T19:21:52.744Z,51.65
2023-05-08T19:23:24.473Z,51.67
2023-05-08T19:24:56.236Z,51.54
2023-05-08T19:26:27.993Z,51.62
2023-05-08T19:27:59.690Z,51.52
2023-05-08T19:29:33.074Z,51.44
2023-05-08T19:31:06.246Z,51.51
2023-05-08T19:32:37.791Z,51.66
2023-05-08T19:34:09.433Z,51.97
2023-05-08T19:35:41.057Z,52.00
2023-05-08T19:37:12.793Z,52.10
2023-05-08T19:38:44.629Z,52.00
2023-05-08T19:40:16.751Z,52.15
2023-05-08T19:41:48.484Z,52.00
2023-05-08T19:43:20.198Z,51.94
2023-05-08T19:44:51.864Z,52.10
2023-05-08T19:46:23.497Z,52.00
2023-05-08T19:47:55.119Z,52.19
2023-05-08T19:49:26.727Z,52.20
2023-05-08T19:50:59.185Z,52.39
2023-05-08T19:52:30.778Z,52.50
2023-05-08T19:54:02.526Z,52.55
2023-05-08T19:55:34.112Z,52.27
2023-05-08T19:57:06.208Z,52.30
2023-05-08T19:58:37.893Z,52.15
2023-05-08T20:00:09.806Z,52.15
2023-05-08T20:01:41.670Z,52.45
2023-05-08T20:03:13.399Z,52.31
2023-05-08T20:06:20.066Z,52.58
2023-05-08T20:07:51.901Z,52.56
2023-05-08T20:09:23.473Z,52.73